Good Hope, IL

9:52 AM CDT on August 20, 2019 (GMT -0500)
MC-Sciota | | Change Station
Active Advisory: Severe Thunderstorm Watch

Elev 771 ft 40.60 °N, 90.75 °W | Updated 52 minutes ago

Light Thunderstorms and Rain
Light Thunderstorm Rain
70.630124 °F
Feels Like 70.630124 °F
N
12.383627
Wind Variable Wind from East
Gusts 23.6 mph

Today
High -- | Low -- °F
--% Chance of Precip.
Yesterday
High -- | Low -- °F
Precip. -- in
Pressure 30.14 in
Visibility 7.0 miles
Clouds Scattered Clouds 5000 ft
Mostly Cloudy 7000 ft
Overcast 8000 ft
Dew Point 69 °F
Humidity 96%
Rainfall 0.02 in
Snow Depth Not available.
6:17 AM 7:53 PM
Waning Gibbous, 78% visible
METAR KMQB 201435Z AUTO 32007KT 7SM -TSRA SCT050 BKN070 OVC080 19/19 A3014 RMK AO2 LTG DSNT ALQS P0017 T01920190
Pressure 30.14 in
Visibility 7.0 miles
Clouds Scattered Clouds 5000 ft
Mostly Cloudy 7000 ft
Overcast 8000 ft
Dew Point 69 °F
Humidity 96%
Rainfall 0.02 in
Snow Depth Not available.
6:17 AM 7:53 PM
Waning Gibbous, 78% visible
METAR KMQB 201435Z AUTO 32007KT 7SM -TSRA SCT050 BKN070 OVC080 19/19 A3014 RMK AO2 LTG DSNT ALQS P0017 T01920190

Get Your Daily Forecast Email!

Thanks for signing up!

Be on the lookout for a verification email in your inbox.

You'll start receiving severe weather alerts in your inbox..

×

10-Day Weather Forecast

Almanac

Astronomy

Aug. 20, 2019 Rise Set
Actual Time
Civil Twilight
Nautical Twilight
Astronomical Twilight
Moon
Length of Visible Light
Length of Day
Tomorrow will be .
, % of the Moon is Illuminated

Today's Extremes

State Highs State Lows

Community

WunderPhotos

Category 6

Welcome to Category 6. This is the collective home for Weather Underground's featured writeups by Dr. Jeff Masters (right), Bob Henson (left), Chris Burt, and other regular contributors.

Nearby

Air Quality

  Air Quality AQ Index Pollutant
Not available.

Snow Depth

Station Depth Elevation

Earthquake Activity

City Distance Mag. Time & Date
Minimum magnitude displayed is 2.5.

Coastal Water Temperatures

Place Temperature

Stations

Nearby Weather Stations

Station Location Temp. Windchill Dew Point Humidity Wind Precip. Elev Updated Type
                   

Watches & Warnings

Severe Thunderstorm Watch
Issued: 9:23 AM CDT Aug. 20, 2019 – National Weather Service

Severe Thunderstorm Watch 602 remains in effect until 300 PM CDT

IL
. Illinois counties included are

Adams Bond Brown
Bureau Calhoun Carroll
Cass Champaign Christian
Clinton Coles Cumberland
De Kalb De Witt Douglas
Edgar Effingham Fayette
Ford Fulton Greene
Grundy Hancock Henderson
Henry Iroquois Jersey
Kane Kankakee Kendall
Knox La Salle Lee
Livingston Logan McDonough
McLean Macon Macoupin
Madison Marion Marshall
Mason Menard Mercer
Monroe Montgomery Morgan
Moultrie Ogle Peoria
Piatt Pike Putnam
Rock Island St. Clair Sangamon
Schuyler Scott Shelby
Stark Tazewell Vermilion
Warren Washington Whiteside
will Woodford